Butteville, Oregon
Current Conditions -  °F | °C
As of 9:53 PM on Monday 20 Oct 2014 (Local Time) from KUAO Reporting Station
Few Clouds Few Clouds  
Wind Chill: 54°   Ceiling: Unl
Heat Index: 54°   Visibility: 10mi
Dew Point: 51°   Wind: 9mph
Humidity: 90%   Direction: 170°S
Pressure: 29.86"   Gusts: NA
Location:  45.2365°N, 122.797°W
Report Text: KUAO 210453Z AUTO 17008KT 10SM FEW070 12/11 A2986 RMK AO2 SLP111 T01220106
Loading
Personal Weather Stations






























Interactive Weather Map
Tropical Storm Tracking
New forecast layout! Learn more

10-Day Weather Forecast

Advertisements
Track Severe Weather on mobile